createdAt,value
2023-03-26T00:01:36.639Z,4.50
2023-03-26T00:04:07.842Z,4.50
2023-03-26T00:06:39.554Z,4.50
2023-03-26T00:09:13.565Z,4.50
2023-03-26T00:11:42.552Z,4.50
2023-03-26T00:14:13.982Z,4.50
2023-03-26T00:16:45.065Z,4.50
2023-03-26T00:19:13.900Z,4.50
2023-03-26T00:21:42.161Z,4.60
2023-03-26T00:24:15.108Z,4.60
2023-03-26T00:26:43.627Z,4.70
2023-03-26T00:29:17.005Z,4.70
2023-03-26T00:31:46.441Z,4.80
2023-03-26T00:34:18.381Z,4.90
2023-03-26T00:36:47.312Z,4.90
2023-03-26T00:39:15.254Z,5.00
2023-03-26T00:41:43.343Z,5.10
2023-03-26T00:44:11.737Z,4.90
2023-03-26T00:46:39.695Z,5.20
2023-03-26T00:49:11.089Z,5.20
2023-03-26T00:51:39.466Z,5.20
2023-03-26T00:54:08.316Z,5.30
2023-03-26T00:56:36.287Z,5.30
2023-03-26T00:59:04.083Z,5.40
2023-03-26T01:01:33.149Z,5.40
2023-03-26T01:04:31.486Z,5.40
2023-03-26T01:07:04.232Z,5.50
2023-03-26T01:09:36.135Z,5.50
2023-03-26T01:12:07.496Z,5.50
2023-03-26T01:14:35.471Z,5.50
2023-03-26T01:17:06.847Z,5.50
2023-03-26T01:19:40.368Z,5.50
2023-03-26T01:22:11.979Z,5.60
2023-03-26T01:24:40.950Z,5.60
2023-03-26T01:27:26.109Z,5.70
2023-03-26T01:30:14.884Z,5.80
2023-03-26T01:33:30.299Z,5.80
2023-03-26T01:36:14.727Z,5.80
2023-03-26T01:39:01.547Z,5.80
2023-03-26T01:41:48.938Z,5.90
2023-03-26T01:44:44.890Z,5.90
2023-03-26T01:47:13.918Z,5.90
2023-03-26T01:49:43.565Z,5.90
2023-03-26T01:52:15.438Z,6.00
2023-03-26T01:54:46.764Z,6.00
2023-03-26T01:57:26.471Z,6.10
2023-03-26T02:00:12.161Z,6.10
2023-03-26T02:02:55.017Z,6.10
2023-03-26T02:05:27.790Z,6.10
2023-03-26T02:08:31.637Z,6.10
2023-03-26T02:11:01.921Z,6.10
2023-03-26T02:13:29.962Z,6.10
2023-03-26T02:16:02.912Z,6.10
2023-03-26T02:18:36.754Z,6.20
2023-03-26T02:21:20.131Z,6.20
2023-03-26T02:23:50.874Z,6.20
2023-03-26T02:26:20.444Z,6.20
2023-03-26T02:28:56.829Z,6.20
2023-03-26T02:31:27.954Z,6.20
2023-03-26T02:33:56.664Z,6.20
2023-03-26T02:36:27.849Z,6.20
2023-03-26T02:39:00.236Z,6.20
2023-03-26T02:41:29.950Z,6.20
2023-03-26T02:44:08.364Z,6.20
2023-03-26T02:46:54.542Z,6.20
2023-03-26T02:49:40.665Z,6.20
2023-03-26T02:52:08.908Z,6.20
2023-03-26T02:54:37.393Z,6.20
2023-03-26T02:57:13.749Z,6.30
2023-03-26T02:59:46.321Z,6.30
2023-03-26T03:02:50.685Z,6.30
2023-03-26T03:05:34.315Z,6.30
2023-03-26T03:08:11.259Z,6.30
2023-03-26T03:11:15.675Z,6.30
2023-03-26T03:13:46.157Z,6.30
2023-03-26T03:16:20.535Z,6.30
2023-03-26T03:18:54.559Z,6.30
2023-03-26T03:21:25.325Z,6.30
2023-03-26T03:23:53.895Z,6.30
2023-03-26T03:26:27.539Z,6.40
2023-03-26T03:28:58.899Z,6.40
2023-03-26T03:31:27.303Z,6.30
2023-03-26T03:34:00.456Z,6.40
2023-03-26T03:36:33.137Z,6.40
2023-03-26T03:39:07.801Z,6.40
2023-03-26T03:41:36.835Z,6.40
2023-03-26T03:44:07.954Z,6.30
2023-03-26T03:46:36.171Z,6.40
2023-03-26T03:49:04.012Z,6.30
2023-03-26T03:51:38.617Z,6.40
2023-03-26T03:54:15.412Z,6.40
2023-03-26T03:56:50.292Z,6.40
2023-03-26T03:59:30.077Z,6.40
2023-03-26T04:01:58.698Z,6.40
2023-03-26T04:04:50.106Z,7.40
2023-03-26T04:07:21.119Z,6.40
2023-03-26T04:10:10.005Z,6.40
2023-03-26T04:12:57.556Z,6.50
2023-03-26T04:15:45.025Z,6.50
2023-03-26T04:18:12.693Z,6.50
2023-03-26T04:20:48.026Z,6.50
2023-03-26T04:23:22.622Z,6.50
2023-03-26T04:25:58.302Z,6.50
2023-03-26T04:28:56.639Z,6.40
2023-03-26T04:31:31.608Z,6.50
2023-03-26T04:34:07.833Z,6.40
2023-03-26T04:36:43.149Z,6.40
2023-03-26T04:39:13.250Z,6.40
2023-03-26T04:42:00.459Z,6.40
2023-03-26T04:44:35.019Z,6.40
2023-03-26T04:47:07.745Z,6.40
2023-03-26T04:49:46.353Z,6.40
2023-03-26T04:52:25.001Z,6.40
2023-03-26T04:55:23.439Z,6.40
2023-03-26T04:58:04.274Z,6.40
2023-03-26T05:01:10.387Z,6.40
2023-03-26T05:03:42.790Z,6.40
2023-03-26T05:06:13.964Z,6.40
2023-03-26T05:08:42.454Z,6.40
2023-03-26T05:11:19.988Z,6.40
2023-03-26T05:13:47.997Z,6.30
2023-03-26T05:16:23.258Z,6.30
2023-03-26T05:18:56.545Z,6.30
2023-03-26T05:21:25.885Z,6.40
2023-03-26T05:23:53.544Z,6.30
2023-03-26T05:26:22.740Z,6.30
2023-03-26T05:28:50.589Z,6.30
2023-03-26T05:31:35.897Z,6.30
2023-03-26T05:34:04.894Z,6.30
2023-03-26T05:36:32.751Z,5.30
2023-03-26T05:39:09.393Z,6.30
2023-03-26T05:41:59.974Z,6.30
2023-03-26T05:44:44.896Z,6.30
2023-03-26T05:47:20.468Z,6.30
2023-03-26T05:49:51.692Z,6.20
2023-03-26T05:52:19.589Z,6.20
2023-03-26T05:55:18.516Z,6.30
2023-03-26T05:58:04.713Z,6.30
2023-03-26T06:00:58.436Z,6.30
2023-03-26T06:03:34.336Z,6.20
2023-03-26T06:06:17.714Z,6.20
2023-03-26T06:09:01.956Z,6.20
2023-03-26T06:11:32.379Z,6.20
2023-03-26T06:14:01.883Z,6.20
2023-03-26T06:16:30.010Z,6.20
2023-03-26T06:19:09.408Z,6.20
2023-03-26T06:21:51.885Z,6.10
2023-03-26T06:24:22.981Z,6.10
2023-03-26T06:27:02.941Z,6.10
2023-03-26T06:29:39.226Z,6.10
2023-03-26T06:32:20.046Z,6.10
2023-03-26T06:34:54.682Z,6.10
2023-03-26T06:37:22.400Z,6.10
2023-03-26T06:39:56.805Z,6.10
2023-03-26T06:43:08.699Z,6.10
2023-03-26T06:45:52.043Z,6.10
2023-03-26T06:48:42.058Z,6.10
2023-03-26T06:51:21.522Z,6.10
2023-03-26T06:54:07.552Z,6.20
2023-03-26T06:56:45.041Z,6.20
2023-03-26T06:59:33.446Z,6.20
2023-03-26T07:02:19.540Z,6.20
2023-03-26T07:05:28.409Z,6.20
2023-03-26T07:08:17.042Z,6.20
2023-03-26T07:11:03.566Z,6.20
2023-03-26T07:14:06.324Z,4.00
2023-03-26T07:16:54.406Z,6.10
2023-03-26T07:19:46.706Z,6.10
2023-03-26T07:22:21.751Z,6.10
2023-03-26T07:25:21.820Z,6.10
2023-03-26T07:29:04.019Z,6.10
2023-03-26T07:31:55.424Z,6.10
2023-03-26T07:35:02.112Z,6.10
2023-03-26T07:37:48.215Z,6.10
2023-03-26T07:40:57.742Z,6.10
2023-03-26T07:43:54.249Z,6.10
2023-03-26T07:46:43.952Z,6.10
2023-03-26T07:49:27.424Z,6.20
2023-03-26T07:52:16.105Z,6.10
2023-03-26T07:54:49.641Z,6.20
2023-03-26T07:57:49.920Z,6.20
2023-03-26T08:03:36.788Z,6.30
2023-03-26T08:06:39.046Z,6.20
2023-03-26T08:09:37.898Z,6.20
2023-03-26T08:12:43.992Z,6.20
2023-03-26T08:15:40.120Z,6.20
2023-03-26T08:18:27.617Z,6.10
2023-03-26T08:21:06.253Z,6.10
2023-03-26T08:24:19.130Z,6.10
2023-03-26T08:26:49.180Z,6.10
2023-03-26T08:29:45.321Z,6.10
2023-03-26T08:32:16.331Z,6.10
2023-03-26T08:34:44.550Z,6.20
2023-03-26T08:37:13.696Z,6.20
2023-03-26T08:39:42.477Z,6.30
2023-03-26T08:42:36.759Z,6.20
2023-03-26T08:45:22.878Z,6.40
2023-03-26T08:47:57.225Z,6.40
2023-03-26T08:50:27.990Z,6.50
2023-03-26T08:53:29.781Z,6.60
2023-03-26T08:56:18.946Z,6.70
2023-03-26T08:59:20.413Z,6.80
2023-03-26T09:01:57.183Z,6.90
2023-03-26T09:05:04.718Z,7.00
2023-03-26T09:07:50.950Z,7.10
2023-03-26T09:10:53.535Z,7.10
2023-03-26T09:13:47.217Z,7.20
2023-03-26T09:16:38.835Z,7.30
2023-03-26T09:19:37.474Z,7.40
2023-03-26T09:22:23.780Z,7.30
2023-03-26T09:25:05.477Z,7.20
2023-03-26T09:27:48.000Z,7.30
2023-03-26T09:30:42.850Z,7.30
2023-03-26T09:33:52.261Z,7.30
2023-03-26T09:36:26.071Z,7.40
2023-03-26T09:39:08.837Z,7.50
2023-03-26T09:41:43.997Z,7.50
2023-03-26T09:44:19.850Z,7.60
2023-03-26T09:46:49.543Z,7.60
2023-03-26T09:49:26.266Z,7.70
2023-03-26T09:52:11.910Z,7.80
2023-03-26T09:54:40.834Z,7.80
2023-03-26T09:57:27.076Z,7.90
2023-03-26T10:00:05.852Z,8.00
2023-03-26T10:02:58.892Z,8.00
2023-03-26T10:05:45.294Z,8.10
2023-03-26T10:08:36.941Z,8.20
2023-03-26T10:11:25.615Z,8.30
2023-03-26T10:14:07.358Z,8.40
2023-03-26T10:16:52.655Z,8.40
2023-03-26T10:19:37.824Z,8.40
2023-03-26T10:22:20.447Z,8.40
2023-03-26T10:25:19.224Z,8.40
2023-03-26T10:28:20.698Z,8.40
2023-03-26T10:31:20.667Z,8.40
2023-03-26T10:34:00.345Z,8.40
2023-03-26T10:36:36.828Z,8.40
2023-03-26T10:39:46.381Z,8.40
2023-03-26T10:42:27.558Z,8.50
2023-03-26T10:45:27.052Z,8.90
2023-03-26T10:48:12.552Z,8.90
2023-03-26T10:51:09.572Z,9.00
2023-03-26T10:54:02.848Z,9.10
2023-03-26T10:56:40.000Z,9.20
2023-03-26T10:59:12.222Z,9.30
2023-03-26T11:02:01.560Z,9.50
2023-03-26T11:04:55.653Z,9.50
2023-03-26T11:07:28.929Z,9.70
2023-03-26T11:10:05.703Z,9.90
2023-03-26T11:13:05.025Z,9.90
2023-03-26T11:15:41.778Z,9.90
2023-03-26T11:18:23.729Z,9.90
2023-03-26T11:21:18.960Z,9.90
2023-03-26T11:24:41.441Z,9.90
2023-03-26T11:27:38.437Z,9.90
2023-03-26T11:30:41.279Z,9.90
2023-03-26T11:33:17.180Z,9.90
2023-03-26T11:35:52.626Z,10.00
2023-03-26T11:38:31.899Z,10.00
2023-03-26T11:41:02.539Z,10.10
2023-03-26T11:43:53.011Z,10.10
2023-03-26T11:46:24.510Z,10.20
2023-03-26T11:49:06.862Z,10.40
2023-03-26T11:51:42.111Z,10.70
2023-03-26T11:54:12.398Z,10.70
2023-03-26T11:57:05.196Z,10.70
2023-03-26T11:59:57.082Z,10.80
2023-03-26T12:02:38.770Z,10.90
2023-03-26T12:05:31.602Z,10.90
2023-03-26T12:08:02.544Z,10.80
2023-03-26T12:10:32.939Z,10.70
2023-03-26T12:13:29.658Z,10.60
2023-03-26T12:16:01.198Z,10.60
2023-03-26T12:18:28.943Z,10.60
2023-03-26T12:21:04.807Z,10.50
2023-03-26T12:23:56.302Z,10.50
2023-03-26T12:26:37.076Z,10.50
2023-03-26T12:29:13.916Z,10.60
2023-03-26T12:31:56.923Z,10.50
2023-03-26T12:34:34.971Z,10.60
2023-03-26T12:37:05.198Z,10.60
2023-03-26T12:40:09.945Z,10.70
2023-03-26T12:44:50.407Z,10.80
2023-03-26T12:45:40.741Z,10.80
2023-03-26T12:48:12.985Z,10.80
2023-03-26T12:51:05.214Z,10.70
2023-03-26T12:54:13.650Z,10.60
2023-03-26T12:57:12.250Z,10.50
2023-03-26T13:00:02.031Z,10.30
2023-03-26T13:02:48.938Z,10.20
2023-03-26T13:05:55.959Z,10.20
2023-03-26T13:08:41.888Z,10.10
2023-03-26T13:11:15.291Z,10.10
2023-03-26T13:14:07.281Z,10.00
2023-03-26T13:16:53.470Z,10.10
2023-03-26T13:19:35.342Z,10.10
2023-03-26T13:22:17.809Z,10.10
2023-03-26T13:24:56.122Z,10.10
2023-03-26T13:27:29.467Z,10.20
2023-03-26T13:30:01.902Z,10.20
2023-03-26T13:32:51.463Z,10.40
2023-03-26T13:35:27.409Z,10.50
2023-03-26T13:38:05.724Z,10.80
2023-03-26T13:40:39.195Z,10.90
2023-03-26T13:43:21.956Z,11.00
2023-03-26T13:46:11.230Z,11.00
2023-03-26T13:49:00.640Z,11.00
2023-03-26T13:51:40.428Z,10.80
2023-03-26T13:54:22.022Z,10.80
2023-03-26T13:57:20.151Z,10.50
2023-03-26T14:00:00.573Z,10.50
2023-03-26T14:02:41.335Z,10.40
2023-03-26T14:05:49.131Z,10.30
2023-03-26T14:08:35.844Z,10.20
2023-03-26T14:11:20.682Z,10.10
2023-03-26T14:13:56.702Z,10.00
2023-03-26T14:16:34.400Z,9.90
2023-03-26T14:19:21.556Z,9.80
2023-03-26T14:22:27.280Z,9.80
2023-03-26T14:24:58.784Z,9.90
2023-03-26T14:27:32.751Z,10.00
2023-03-26T14:30:23.436Z,10.20
2023-03-26T14:33:34.084Z,10.20
2023-03-26T14:36:35.578Z,10.30
2023-03-26T14:39:57.102Z,10.30
2023-03-26T14:42:41.492Z,10.40
2023-03-26T14:45:37.210Z,10.40
2023-03-26T14:51:14.351Z,10.40
2023-03-26T14:53:50.498Z,10.30
2023-03-26T14:56:20.859Z,10.30
2023-03-26T14:59:13.624Z,10.10
2023-03-26T15:01:53.274Z,10.10
2023-03-26T15:04:51.751Z,10.10
2023-03-26T15:07:19.766Z,10.00
2023-03-26T15:10:08.374Z,10.00
2023-03-26T15:13:00.459Z,10.10
2023-03-26T15:15:38.003Z,10.10
2023-03-26T15:18:36.803Z,10.20
2023-03-26T15:21:28.581Z,10.20
2023-03-26T15:24:24.848Z,10.20
2023-03-26T15:27:10.467Z,10.20
2023-03-26T15:29:56.888Z,10.10
2023-03-26T15:33:09.147Z,12.20
2023-03-26T15:36:04.856Z,10.00
2023-03-26T15:38:38.774Z,9.90
2023-03-26T15:41:25.207Z,9.80
2023-03-26T15:44:24.401Z,9.70
2023-03-26T15:47:22.819Z,9.60
2023-03-26T15:50:13.188Z,9.50
2023-03-26T15:53:04.822Z,9.50
2023-03-26T15:55:52.406Z,9.40
2023-03-26T15:58:45.127Z,9.40
2023-03-26T16:01:33.901Z,9.30
2023-03-26T16:04:18.267Z,9.30
2023-03-26T16:06:52.425Z,9.30
2023-03-26T16:09:35.273Z,9.30
2023-03-26T16:12:11.934Z,9.30
2023-03-26T16:14:48.472Z,9.30
2023-03-26T16:17:25.479Z,9.20
2023-03-26T16:20:31.261Z,9.20
2023-03-26T16:23:07.026Z,9.20
2023-03-26T16:25:56.713Z,9.20
2023-03-26T16:28:35.093Z,9.10
2023-03-26T16:31:37.178Z,9.00
2023-03-26T16:34:26.671Z,8.90
2023-03-26T16:36:55.435Z,8.90
2023-03-26T16:39:37.532Z,8.90
2023-03-26T16:42:39.763Z,8.80
2023-03-26T16:45:23.237Z,8.80
2023-03-26T16:47:55.484Z,8.80
2023-03-26T16:51:08.713Z,8.70
2023-03-26T16:53:46.608Z,8.70
2023-03-26T16:56:43.290Z,8.70
2023-03-26T17:00:05.753Z,8.60
2023-03-26T17:03:03.630Z,8.60
2023-03-26T17:05:58.494Z,8.60
2023-03-26T17:08:53.419Z,8.50
2023-03-26T17:11:21.099Z,8.40
2023-03-26T17:14:32.411Z,8.40
2023-03-26T17:17:03.083Z,8.30
2023-03-26T17:19:41.900Z,8.40
2023-03-26T17:22:12.537Z,8.30
2023-03-26T17:24:51.232Z,8.30
2023-03-26T17:28:16.729Z,8.30
2023-03-26T17:31:23.808Z,8.30
2023-03-26T17:33:54.889Z,8.30
2023-03-26T17:36:40.151Z,8.10
2023-03-26T17:39:38.665Z,8.10
2023-03-26T17:42:33.546Z,8.00
2023-03-26T17:45:25.285Z,7.80
2023-03-26T17:48:15.398Z,7.80
2023-03-26T17:50:50.594Z,7.80
2023-03-26T17:53:27.264Z,7.70
2023-03-26T17:55:57.763Z,7.60
2023-03-26T17:58:30.586Z,7.60
2023-03-26T18:01:27.063Z,7.60
2023-03-26T18:04:01.857Z,7.50
2023-03-26T18:07:04.091Z,7.50
2023-03-26T18:09:53.705Z,7.40
2023-03-26T18:12:33.288Z,7.40
2023-03-26T18:15:30.340Z,7.30
2023-03-26T18:18:46.175Z,7.50
2023-03-26T18:21:32.084Z,7.30
2023-03-26T18:24:01.249Z,7.20
2023-03-26T18:26:41.551Z,7.20
2023-03-26T18:29:32.271Z,7.20
2023-03-26T18:32:09.105Z,7.10
2023-03-26T18:34:53.280Z,7.10
2023-03-26T18:37:24.219Z,7.10
2023-03-26T18:40:19.045Z,7.00
2023-03-26T18:42:56.555Z,7.00
2023-03-26T18:45:33.864Z,7.00
2023-03-26T18:48:06.178Z,7.00
2023-03-26T18:50:37.363Z,7.00
2023-03-26T18:53:14.087Z,7.00
2023-03-26T18:55:43.583Z,7.00
2023-03-26T18:58:30.169Z,7.00
2023-03-26T19:01:01.481Z,6.90
2023-03-26T19:03:32.174Z,6.90
2023-03-26T19:06:02.440Z,6.90
2023-03-26T19:08:32.794Z,6.90
2023-03-26T19:11:04.927Z,6.90
2023-03-26T19:13:33.778Z,6.90
2023-03-26T19:16:12.713Z,6.90
2023-03-26T19:18:43.803Z,6.90
2023-03-26T19:21:13.363Z,6.90
2023-03-26T19:23:42.105Z,6.90
2023-03-26T19:26:14.149Z,6.90
2023-03-26T19:28:53.649Z,6.80
2023-03-26T19:31:30.348Z,6.90
2023-03-26T19:34:01.079Z,6.90
2023-03-26T19:36:31.715Z,6.90
2023-03-26T19:38:59.987Z,6.90
2023-03-26T19:41:33.374Z,6.80
2023-03-26T19:44:03.699Z,6.80
2023-03-26T19:46:53.646Z,6.80
2023-03-26T19:49:33.770Z,6.80
2023-03-26T19:52:11.560Z,6.80
2023-03-26T19:55:21.934Z,6.80
2023-03-26T19:57:50.677Z,6.70
2023-03-26T20:00:19.478Z,6.80
2023-03-26T20:02:48.712Z,6.80
2023-03-26T20:05:28.853Z,6.70
2023-03-26T20:07:59.756Z,6.70
2023-03-26T20:10:28.507Z,6.70
2023-03-26T20:12:56.582Z,6.70
2023-03-26T20:15:28.623Z,6.70
2023-03-26T20:17:56.763Z,6.60
2023-03-26T20:20:26.186Z,6.60
2023-03-26T20:22:55.027Z,6.60
2023-03-26T20:25:33.071Z,6.60
2023-03-26T20:28:00.837Z,6.60
2023-03-26T20:30:37.520Z,6.50
2023-03-26T20:33:12.417Z,6.50
2023-03-26T20:35:41.656Z,6.50
2023-03-26T20:38:10.318Z,6.50
2023-03-26T20:40:38.984Z,6.40
2023-03-26T20:43:12.183Z,6.40
2023-03-26T20:45:40.997Z,6.40
2023-03-26T20:48:11.952Z,6.40
2023-03-26T20:50:50.354Z,6.40
2023-03-26T20:53:20.306Z,6.30
2023-03-26T20:55:49.283Z,6.30
2023-03-26T20:58:31.438Z,6.30
2023-03-26T21:01:01.832Z,6.30
2023-03-26T21:03:30.082Z,7.40
2023-03-26T21:06:02.719Z,6.30
2023-03-26T21:08:37.384Z,6.30
2023-03-26T21:11:13.397Z,6.20
2023-03-26T21:13:52.375Z,6.20
2023-03-26T21:16:20.715Z,6.20
2023-03-26T21:18:56.642Z,6.20
2023-03-26T21:21:36.253Z,6.20
2023-03-26T21:24:22.809Z,7.30
2023-03-26T21:27:01.902Z,6.20
2023-03-26T21:29:33.173Z,6.10
2023-03-26T21:32:01.457Z,6.10
2023-03-26T21:34:33.527Z,6.10
2023-03-26T21:37:05.061Z,6.10
2023-03-26T21:39:35.654Z,6.10
2023-03-26T21:42:04.753Z,6.10
2023-03-26T21:44:34.339Z,6.10
2023-03-26T21:47:02.255Z,6.10
2023-03-26T21:49:30.604Z,6.10
2023-03-26T21:51:58.425Z,6.10
2023-03-26T21:54:35.016Z,6.00
2023-03-26T21:57:28.023Z,6.10
2023-03-26T22:00:23.616Z,6.00
2023-03-26T22:03:10.349Z,6.00
2023-03-26T22:05:50.148Z,6.00
2023-03-26T22:08:30.093Z,6.00
2023-03-26T22:10:58.076Z,6.00
2023-03-26T22:13:25.836Z,5.90
2023-03-26T22:15:53.950Z,5.90
2023-03-26T22:18:21.767Z,6.00
2023-03-26T22:20:49.690Z,6.00
2023-03-26T22:25:46.505Z,5.90
2023-03-26T22:28:14.574Z,5.90
2023-03-26T22:30:42.381Z,5.90
2023-03-26T22:33:11.092Z,5.90
2023-03-26T22:35:41.502Z,5.90
2023-03-26T22:38:09.748Z,5.90
2023-03-26T22:40:38.751Z,5.90
2023-03-26T22:43:06.403Z,5.90
2023-03-26T22:45:34.067Z,5.90
2023-03-26T22:48:04.683Z,5.80
2023-03-26T22:53:01.093Z,5.80
2023-03-26T22:55:29.800Z,5.80
2023-03-26T22:57:57.939Z,5.80
2023-03-26T23:00:26.504Z,5.80
2023-03-26T23:03:00.240Z,5.80
2023-03-26T23:05:28.480Z,5.80
2023-03-26T23:07:57.114Z,5.80
2023-03-26T23:10:24.794Z,5.80
2023-03-26T23:12:52.967Z,5.80
2023-03-26T23:15:20.654Z,5.80
2023-03-26T23:17:54.708Z,5.80
2023-03-26T23:20:23.087Z,5.80
2023-03-26T23:22:50.756Z,5.80
2023-03-26T23:25:21.751Z,5.70
2023-03-26T23:27:50.627Z,5.70
2023-03-26T23:30:19.279Z,5.70
2023-03-26T23:32:47.162Z,5.70
2023-03-26T23:35:14.963Z,5.60
2023-03-26T23:37:42.725Z,5.60
2023-03-26T23:40:11.175Z,5.50
2023-03-26T23:42:39.231Z,5.50
2023-03-26T23:45:08.558Z,5.40
2023-03-26T23:47:36.470Z,5.20
2023-03-26T23:50:04.927Z,5.20
2023-03-26T23:52:32.662Z,5.00
2023-03-26T23:55:00.237Z,4.90
2023-03-26T23:59:56.231Z,4.70
